Time;durP1;ratioP1;P1;durP2;ratioP2;P2;SDS_P1;SDS_P2;PMS_P1;PMS_P2;Temp;Humidity;BMP_temperature;BMP_pressure;BME280_temperature;BME280_humidity;BME280_pressure;Samples;Min_cycle;Max_cycle;Signal;HPM_P1;HPM_P2
2023/07/27 00:00:22;;;;;;;;;;;;;;;16.12;64.68;100892.66;5058686;28;1201;-80
2023/07/27 00:02:47;;;;;;;;;;;;;;;16.11;64.70;100896.22;5052422;28;1225;-80
2023/07/27 00:05:15;;;;;;;;;;;;;;;16.08;64.96;100896.56;5050305;28;1251;-80
2023/07/27 00:07:40;;;;;;;;;;;;;;;16.08;65.33;100897.38;5053949;28;1263;-80
2023/07/27 00:10:06;;;;;;;;;;;;;;;16.09;65.37;100903.41;5067498;28;1285;-80
2023/07/27 00:12:31;;;;;;;;;;;;;;;16.09;65.49;100903.41;5066499;28;1194;-80
2023/07/27 00:14:56;;;;;;;;;;;;;;;16.12;65.44;100908.34;5064361;28;1230;-79
2023/07/27 00:17:22;;;;;;;;;;;;;;;16.12;66.18;100898.69;5066199;28;1918;-80
2023/07/27 00:19:48;;;;;;;;;;;;;;;16.13;65.83;100904.75;5061138;28;1229;-81
2023/07/27 00:22:13;;;;;;;;;;;;;;;16.12;66.12;100903.94;5049441;28;1643;-80
2023/07/27 00:24:38;;;;;;;;;;;;;;;16.12;66.84;100908.34;5060203;28;1609;-80
2023/07/27 00:27:03;;;;;;;;;;;;;;;16.11;67.19;100901.44;5035280;28;1247;-80
2023/07/27 00:29:29;;;;;;;;;;;;;;;16.10;67.78;100899.81;5075471;28;1568;-80
2023/07/27 00:31:54;;;;;;;;;;;;;;;16.10;68.80;100910.28;5073468;28;1232;-80
2023/07/27 00:34:19;;;;;;;;;;;;;;;16.08;68.78;100907.00;5076503;28;1210;-80
2023/07/27 00:36:44;;;;;;;;;;;;;;;16.06;68.52;100903.75;5062633;28;1894;-80
2023/07/27 00:39:11;;;;;;;;;;;;;;;16.02;69.04;100898.00;5066703;28;1261;-80
2023/07/27 00:41:36;;;;;;;;;;;;;;;15.96;69.25;100892.59;5064016;28;1312;-80
2023/07/27 00:44:01;;;;;;;;;;;;;;;15.91;69.24;100888.66;5065658;28;1279;-80
2023/07/27 00:46:27;;;;;;;;;;;;;;;15.85;71.14;100891.91;5075638;28;1169;-80
2023/07/27 00:48:52;;;;;;;;;;;;;;;15.84;71.54;100884.22;5067101;28;1133;-79
2023/07/27 00:51:17;;;;;;;;;;;;;;;15.78;71.81;100880.44;5070156;28;1275;-79
2023/07/27 00:53:43;;;;;;;;;;;;;;;15.75;72.10;100891.19;5046980;28;1144;-79
2023/07/27 00:56:08;;;;;;;;;;;;;;;15.70;71.67;100875.16;5053112;28;1390;-79
2023/07/27 00:58:34;;;;;;;;;;;;;;;15.67;72.46;100872.88;5064692;28;1985;-78
2023/07/27 01:01:01;;;;;;;;;;;;;;;15.65;73.85;100872.19;5071690;28;1429;-79
2023/07/27 01:03:27;;;;;;;;;;;;;;;15.63;75.36;100866.31;5057633;28;1121;-79
2023/07/27 01:05:52;;;;;;;;;;;;;;;15.62;74.89;100869.88;5063973;28;1180;-79
2023/07/27 01:08:17;;;;;;;;;;;;;;;15.58;75.10;100858.06;5054148;28;1157;-79
2023/07/27 01:11:00;;;;;;;;;;;;;;;15.57;75.26;100861.66;5068249;28;1138;-78
2023/07/27 01:13:35;;;;;;;;;;;;;;;15.55;76.31;100847.94;5046658;28;1765;-78
2023/07/27 01:16:03;;;;;;;;;;;;;;;15.52;76.22;100850.84;5069042;28;1553;-78
2023/07/27 01:18:32;;;;;;;;;;;;;;;15.50;76.23;100855.44;5058508;28;1989;-78
2023/07/27 01:21:07;;;;;;;;;;;;;;;15.48;77.46;100852.13;5049231;28;1511;-78
2023/07/27 01:23:35;;;;;;;;;;;;;;;15.46;77.74;100844.47;5054042;28;1547;-77
2023/07/27 01:26:16;;;;;;;;;;;;;;;15.48;78.65;100844.31;5044177;28;1177;-78
2023/07/27 01:28:52;;;;;;;;;;;;;;;15.48;79.08;100831.22;5056533;28;1196;-78
2023/07/27 01:31:21;;;;;;;;;;;;;;;15.44;78.63;100830.75;5058049;28;1220;-78
2023/07/27 01:33:52;;;;;;;;;;;;;;;15.44;78.20;100835.16;5062031;28;1192;-78
2023/07/27 01:36:20;;;;;;;;;;;;;;;15.39;78.84;100831.22;5060651;28;1260;-78
2023/07/27 01:38:47;;;;;;;;;;;;;;;15.38;79.10;100821.72;5056570;28;1890;-78
2023/07/27 01:41:13;;;;;;;;;;;;;;;15.44;79.87;100814.25;5062332;28;1481;-78
2023/07/27 01:43:41;;;;;;;;;;;;;;;15.47;79.99;100809.50;5047285;28;1518;-78
2023/07/27 01:46:07;;;;;;;;;;;;;;;15.45;80.03;100805.41;5056428;28;1517;-78
2023/07/27 01:48:33;;;;;;;;;;;;;;;15.48;80.11;100800.69;5060056;28;1315;-79
2023/07/27 01:50:59;;;;;;;;;;;;;;;15.52;80.08;100804.63;5064612;28;1332;-78
2023/07/27 01:53:26;;;;;;;;;;;;;;;15.52;79.76;100795.97;5064064;28;1408;-78
2023/07/27 01:55:53;;;;;;;;;;;;;;;15.52;79.29;100795.97;5061954;28;1272;-78
2023/07/27 01:58:19;;;;;;;;;;;;;;;15.47;80.68;100793.00;5062782;28;1959;-78
2023/07/27 02:00:45;;;;;;;;;;;;;;;15.49;80.80;100788.47;5047029;28;1259;-78
2023/07/27 02:03:11;;;;;;;;;;;;;;;15.50;81.38;100782.25;5019263;28;1205;-78
2023/07/27 02:05:36;;;;;;;;;;;;;;;15.53;81.10;100772.28;5019494;28;1212;-77
2023/07/27 02:08:01;;;;;;;;;;;;;;;15.55;81.11;100774.75;5030796;28;1150;-78
2023/07/27 02:10:27;;;;;;;;;;;;;;;15.57;81.20;100778.00;5020263;28;1394;-78
2023/07/27 02:13:07;;;;;;;;;;;;;;;15.58;81.25;100766.56;5030814;28;1344;-78
2023/07/27 02:15:36;;;;;;;;;;;;;;;15.56;81.41;100763.31;5020114;28;1703;-78
2023/07/27 02:18:04;;;;;;;;;;;;;;;15.55;81.08;100765.13;5033702;28;1918;-79
2023/07/27 02:20:33;;;;;;;;;;;;;;;15.53;81.64;100755.78;5037040;28;1195;-77
2023/07/27 02:22:59;;;;;;;;;;;;;;;15.51;82.11;100749.91;5023844;28;1658;-78
2023/07/27 02:25:24;;;;;;;;;;;;;;;15.49;81.59;100751.88;5038780;28;989;-77
2023/07/27 02:27:49;;;;;;;;;;;;;;;15.46;82.03;100744.31;5039517;28;1307;-78
2023/07/27 02:30:15;;;;;;;;;;;;;;;15.45;81.88;100747.91;5035481;28;1563;-77
2023/07/27 02:32:40;;;;;;;;;;;;;;;15.41;81.85;100727.31;5036491;28;1209;-77
2023/07/27 02:35:05;;;;;;;;;;;;;;;15.38;82.35;100722.41;5037932;28;1348;-77
2023/07/27 02:37:31;;;;;;;;;;;;;;;15.33;82.38;100719.47;5023398;28;1889;-77
2023/07/27 02:39:56;;;;;;;;;;;;;;;15.30;82.31;100709.31;5037637;28;1150;-77
2023/07/27 02:42:21;;;;;;;;;;;;;;;15.31;82.33;100710.97;5030224;28;1343;-77
2023/07/27 02:44:46;;;;;;;;;;;;;;;15.25;82.30;100710.75;5035875;28;1205;-78
2023/07/27 02:47:12;;;;;;;;;;;;;;;15.21;82.99;100710.28;5014673;28;1018;-77
2023/07/27 02:49:37;;;;;;;;;;;;;;;15.16;83.34;100707.31;5033585;28;1380;-79
2023/07/27 02:52:02;;;;;;;;;;;;;;;15.13;83.39;100703.22;5033600;28;1502;-78
2023/07/27 02:54:28;;;;;;;;;;;;;;;15.11;83.76;100699.13;5034148;28;977;-77
2023/07/27 02:56:53;;;;;;;;;;;;;;;15.10;83.85;100694.88;5036162;28;1914;-77
2023/07/27 02:59:18;;;;;;;;;;;;;;;15.07;84.19;100687.34;5043888;28;1100;-77
2023/07/27 03:01:43;;;;;;;;;;;;;;;15.05;84.05;100684.09;5042552;28;1177;-77
2023/07/27 03:04:08;;;;;;;;;;;;;;;15.04;84.67;100682.47;5064525;28;1090;-78
2023/07/27 03:06:35;;;;;;;;;;;;;;;15.02;84.23;100679.16;5044117;28;1252;-77
2023/07/27 03:09:00;;;;;;;;;;;;;;;15.02;84.22;100676.56;5064641;28;1093;-76
2023/07/27 03:11:26;;;;;;;;;;;;;;;14.98;84.36;100663.00;5064068;28;1161;-77
2023/07/27 03:13:53;;;;;;;;;;;;;;;14.93;85.26;100660.06;5067542;28;1102;-77
2023/07/27 03:16:18;;;;;;;;;;;;;;;14.88;85.44;100652.69;5065499;28;1080;-79
2023/07/27 03:18:43;;;;;;;;;;;;;;;14.84;85.76;100656.56;5062757;28;1990;-78
2023/07/27 03:21:10;;;;;;;;;;;;;;;14.82;86.28;100648.09;5065441;28;1353;-77
2023/07/27 03:23:35;;;;;;;;;;;;;;;14.80;86.16;100638.78;5067570;28;1202;-77
2023/07/27 03:26:01;;;;;;;;;;;;;;;14.79;86.78;100630.13;5064913;28;1554;-77
2023/07/27 03:28:26;;;;;;;;;;;;;;;14.78;86.70;100631.09;5051051;28;1184;-77
2023/07/27 03:30:51;;;;;;;;;;;;;;;14.77;86.72;100623.44;5069055;28;1192;-77
2023/07/27 03:33:16;;;;;;;;;;;;;;;14.74;87.94;100628.97;5058958;28;1229;-78
2023/07/27 03:35:53;;;;;;;;;;;;;;;14.65;87.14;100617.66;5059369;28;1279;-78
2023/07/27 03:38:18;;;;;;;;;;;;;;;14.61;87.99;100613.72;5066007;28;1898;-79
2023/07/27 03:40:44;;;;;;;;;;;;;;;14.58;87.37;100608.84;5061714;28;1248;-77
2023/07/27 03:43:10;;;;;;;;;;;;;;;14.55;88.10;100598.69;5064886;28;1486;-77
2023/07/27 03:45:35;;;;;;;;;;;;;;;14.52;87.82;100593.81;5064692;28;1209;-77
2023/07/27 03:48:00;;;;;;;;;;;;;;;14.49;88.87;100583.66;5064817;28;1272;-77
2023/07/27 03:50:25;;;;;;;;;;;;;;;14.49;88.19;100575.84;5054017;28;1432;-77
2023/07/27 03:52:50;;;;;;;;;;;;;;;14.50;88.36;100564.41;5068232;28;1196;-78
2023/07/27 03:55:22;;;;;;;;;;;;;;;14.46;88.39;100563.09;5069504;28;1160;-77
2023/07/27 03:57:47;;;;;;;;;;;;;;;14.41;89.08;100565.34;5061566;28;1898;-77
2023/07/27 04:00:12;;;;;;;;;;;;;;;14.39;91.15;100556.84;5063609;28;1228;-77
2023/07/27 04:02:38;;;;;;;;;;;;;;;14.34;89.87;100563.34;5066603;28;1243;-77
2023/07/27 04:05:03;;;;;;;;;;;;;;;14.32;89.48;100552.25;5046419;28;1444;-78
2023/07/27 04:07:28;;;;;;;;;;;;;;;14.31;89.40;100549.78;5067822;28;1275;-78
2023/07/27 04:09:53;;;;;;;;;;;;;;;14.28;89.27;100537.91;5047776;28;1209;-77
2023/07/27 04:12:18;;;;;;;;;;;;;;;14.25;90.79;100535.59;5063151;28;1208;-77
2023/07/27 04:14:44;;;;;;;;;;;;;;;14.20;90.55;100537.84;5063305;28;1499;-77
2023/07/27 04:17:09;;;;;;;;;;;;;;;14.18;91.22;100529.38;5066604;28;1965;-78
2023/07/27 04:19:35;;;;;;;;;;;;;;;14.17;91.42;100522.50;5062243;28;1331;-77
2023/07/27 04:22:00;;;;;;;;;;;;;;;14.14;91.49;100512.38;5063792;28;1094;-78
2023/07/27 04:24:25;;;;;;;;;;;;;;;14.13;91.85;100512.53;5051377;28;1192;-78
2023/07/27 04:26:50;;;;;;;;;;;;;;;14.12;92.44;100511.72;5062828;28;1213;-78
2023/07/27 04:29:16;;;;;;;;;;;;;;;14.10;92.61;100500.63;5066930;28;1399;-78
2023/07/27 04:31:41;;;;;;;;;;;;;;;14.12;92.55;100498.69;5070636;28;1254;-78
2023/07/27 04:34:06;;;;;;;;;;;;;;;14.13;92.82;100491.69;5066926;28;1113;-77
2023/07/27 04:36:31;;;;;;;;;;;;;;;14.14;95.19;100490.69;5063699;28;1273;-77
2023/07/27 04:38:56;;;;;;;;;;;;;;;14.12;94.19;100488.25;5060316;28;1886;-77
2023/07/27 04:41:22;;;;;;;;;;;;;;;14.11;94.17;100491.84;5061640;28;1427;-77
2023/07/27 04:43:47;;;;;;;;;;;;;;;14.11;94.83;100486.63;5065067;28;1193;-77
2023/07/27 04:46:12;;;;;;;;;;;;;;;14.12;93.95;100482.22;5052100;28;1565;-77
2023/07/27 04:48:37;;;;;;;;;;;;;;;14.14;94.52;100470.66;5063935;28;1055;-77
2023/07/27 04:51:03;;;;;;;;;;;;;;;14.15;93.73;100472.28;5064571;28;1199;-78
2023/07/27 04:53:28;;;;;;;;;;;;;;;14.16;93.52;100462.66;5061664;28;1083;-76
2023/07/27 04:55:53;;;;;;;;;;;;;;;14.17;94.32;100454.69;5062538;28;1091;-77
2023/07/27 04:58:18;;;;;;;;;;;;;;;14.18;94.29;100447.69;5055875;28;1894;-79
2023/07/27 05:00:44;;;;;;;;;;;;;;;14.17;95.31;100452.09;5068132;28;1262;-77
2023/07/27 05:03:09;;;;;;;;;;;;;;;14.18;95.21;100455.50;5044874;28;1209;-77
2023/07/27 05:05:34;;;;;;;;;;;;;;;14.18;95.44;100445.91;5043732;28;1207;-76
2023/07/27 05:07:59;;;;;;;;;;;;;;;14.19;96.19;100451.94;5064195;28;1204;-79
2023/07/27 05:10:24;;;;;;;;;;;;;;;14.21;94.74;100442.97;5065137;28;1325;-77
2023/07/27 05:12:50;;;;;;;;;;;;;;;14.23;95.42;100450.66;5063198;28;1180;-77
2023/07/27 05:15:15;;;;;;;;;;;;;;;14.23;94.92;100443.63;5049032;28;1161;-76
2023/07/27 05:17:40;;;;;;;;;;;;;;;14.23;95.15;100445.44;5065574;28;1897;-77
2023/07/27 05:20:06;;;;;;;;;;;;;;;14.22;95.40;100426.34;5068521;28;1240;-77
2023/07/27 05:22:31;;;;;;;;;;;;;;;14.22;96.27;100431.56;5071491;28;1117;-77
2023/07/27 05:24:56;;;;;;;;;;;;;;;14.25;95.40;100431.25;5065281;28;1101;-77
2023/07/27 05:27:21;;;;;;;;;;;;;;;14.23;95.96;100427.97;5060355;28;1097;-78
2023/07/27 05:29:46;;;;;;;;;;;;;;;14.26;96.41;100440.69;5044072;28;1176;-77
2023/07/27 05:32:21;;;;;;;;;;;;;;;14.25;95.60;100427.81;5062927;28;1056;-77
2023/07/27 05:34:46;;;;;;;;;;;;;;;14.25;97.10;100420.81;5060480;28;1251;-78
2023/07/27 05:37:12;;;;;;;;;;;;;;;14.28;96.98;100420.50;5045291;28;1921;-79
2023/07/27 05:39:37;;;;;;;;;;;;;;;14.31;96.77;100414.94;5063527;28;1515;-77
2023/07/27 05:42:02;;;;;;;;;;;;;;;14.32;97.26;100413.97;5063085;28;1311;-77
2023/07/27 05:44:27;;;;;;;;;;;;;;;14.34;97.51;100409.44;5061655;28;1192;-78
2023/07/27 05:46:54;;;;;;;;;;;;;;;14.39;98.15;100405.50;5063230;28;1446;-76
2023/07/27 05:49:19;;;;;;;;;;;;;;;14.41;97.71;100408.78;5064351;28;1667;-78
2023/07/27 05:51:45;;;;;;;;;;;;;;;14.41;97.80;100398.34;5066702;28;1287;-78
2023/07/27 05:54:10;;;;;;;;;;;;;;;14.44;97.93;100398.00;5065589;28;1368;-78
2023/07/27 05:56:35;;;;;;;;;;;;;;;14.45;97.66;100399.66;5048412;28;1273;-77
2023/07/27 05:59:00;;;;;;;;;;;;;;;14.47;98.15;100402.97;5056090;28;1917;-77
2023/07/27 06:01:25;;;;;;;;;;;;;;;14.50;98.24;100402.63;5058832;28;1200;-79
2023/07/27 06:03:51;;;;;;;;;;;;;;;14.53;99.41;100397.09;5070973;28;1561;-78
2023/07/27 06:06:16;;;;;;;;;;;;;;;14.53;98.60;100397.09;5067538;28;1240;-78
2023/07/27 06:08:41;;;;;;;;;;;;;;;14.54;97.52;100393.50;5069827;28;1168;-77
2023/07/27 06:11:09;;;;;;;;;;;;;;;14.55;98.60;100393.34;5051083;28;1217;-77
2023/07/27 06:13:34;;;;;;;;;;;;;;;14.59;98.71;100392.03;5061774;28;1230;-77
2023/07/27 06:16:00;;;;;;;;;;;;;;;14.61;99.11;100384.84;5043581;28;1268;-77
2023/07/27 06:18:25;;;;;;;;;;;;;;;14.64;98.86;100388.94;5067013;28;1955;-80
2023/07/27 06:20:50;;;;;;;;;;;;;;;14.66;99.73;100381.75;5064173;28;1138;-77
2023/07/27 06:23:16;;;;;;;;;;;;;;;14.67;97.90;100382.56;5063922;28;1216;-77
2023/07/27 06:25:44;;;;;;;;;;;;;;;14.67;98.98;100383.38;5059409;28;1273;-78
2023/07/27 06:28:09;;;;;;;;;;;;;;;14.70;98.87;100383.09;5063010;28;1211;-78
2023/07/27 06:30:36;;;;;;;;;;;;;;;14.73;98.80;100381.94;5068045;28;1085;-80
2023/07/27 06:33:01;;;;;;;;;;;;;;;14.74;99.58;100378.38;5043435;28;1213;-77
2023/07/27 06:35:26;;;;;;;;;;;;;;;14.76;99.68;100371.97;5053327;28;1270;-79
2023/07/27 06:37:51;;;;;;;;;;;;;;;14.78;99.93;100369.19;5057898;28;1949;-77
2023/07/27 06:40:17;;;;;;;;;;;;;;;14.80;100.00;100368.06;5064300;28;1182;-77
2023/07/27 06:42:42;;;;;;;;;;;;;;;14.82;100.00;100360.88;5061426;28;1310;-77
2023/07/27 06:45:07;;;;;;;;;;;;;;;14.83;99.86;100357.28;5059169;28;1487;-77
2023/07/27 06:47:32;;;;;;;;;;;;;;;14.84;100.00;100366.75;5062750;28;1192;-77
2023/07/27 06:49:58;;;;;;;;;;;;;;;14.88;100.00;100365.44;5060443;28;1189;-77
2023/07/27 06:52:23;;;;;;;;;;;;;;;14.92;100.00;100360.72;5058527;28;1085;-77
2023/07/27 06:54:48;;;;;;;;;;;;;;;14.95;100.00;100359.56;5064184;28;1113;-79
2023/07/27 06:57:13;;;;;;;;;;;;;;;14.97;100.00;100368.06;5047263;28;1902;-77
2023/07/27 06:59:38;;;;;;;;;;;;;;;15.01;100.00;100364.13;5059330;28;1216;-77
2023/07/27 07:02:04;;;;;;;;;;;;;;;15.05;100.00;100366.25;5062379;28;1264;-77
2023/07/27 07:04:30;;;;;;;;;;;;;;;15.09;100.00;100364.13;5058389;28;1458;-77
2023/07/27 07:06:55;;;;;;;;;;;;;;;15.13;100.00;100362.81;5059360;28;1155;-77
2023/07/27 07:09:21;;;;;;;;;;;;;;;15.17;100.00;100356.28;5063997;28;1264;-77
2023/07/27 07:11:46;;;;;;;;;;;;;;;15.22;100.00;100356.59;5045364;28;1201;-77
2023/07/27 07:14:12;;;;;;;;;;;;;;;15.29;100.00;100357.56;5064893;28;1220;-77
2023/07/27 07:16:37;;;;;;;;;;;;;;;15.34;100.00;100352.63;5059321;28;1127;-78
2023/07/27 07:19:02;;;;;;;;;;;;;;;15.39;100.00;100352.97;5049121;28;1893;-77
2023/07/27 07:21:27;;;;;;;;;;;;;;;15.40;100.00;100349.34;5066611;28;1478;-77
2023/07/27 07:23:52;;;;;;;;;;;;;;;15.45;100.00;100350.66;5060059;28;1275;-77
2023/07/27 07:26:18;;;;;;;;;;;;;;;15.47;100.00;100343.44;5059930;28;1161;-78
2023/07/27 07:28:43;;;;;;;;;;;;;;;15.48;100.00;100339.84;5060181;28;1280;-77
2023/07/27 07:31:08;;;;;;;;;;;;;;;15.49;100.00;100342.31;5059263;28;2205;-77
2023/07/27 07:33:33;;;;;;;;;;;;;;;15.51;100.00;100335.13;5060538;28;1506;-77
2023/07/27 07:35:59;;;;;;;;;;;;;;;15.55;100.00;100331.19;5058805;28;1045;-78
2023/07/27 07:38:46;;;;;;;;;;;;;;;15.57;100.00;100336.22;5048729;28;1961;-77
2023/07/27 07:41:11;;;;;;;;;;;;;;;15.63;100.00;100332.97;5061246;28;1197;-78
2023/07/27 07:43:36;;;;;;;;;;;;;;;15.68;100.00;100330.66;5060103;28;1301;-78
2023/07/27 07:46:01;;;;;;;;;;;;;;;15.72;100.00;100329.34;5064089;28;1701;-77
2023/07/27 07:48:27;;;;;;;;;;;;;;;15.79;100.00;100332.91;5062419;28;1268;-78
2023/07/27 07:50:52;;;;;;;;;;;;;;;15.86;100.00;100328.59;5056343;28;1281;-77
2023/07/27 07:53:17;;;;;;;;;;;;;;;15.91;100.00;100326.28;5057115;28;1016;-78
2023/07/27 07:55:42;;;;;;;;;;;;;;;15.98;100.00;100330.84;5047937;28;1560;-78
2023/07/27 07:58:08;;;;;;;;;;;;;;;16.01;100.00;100325.28;5057955;28;1965;-78
2023/07/27 08:00:33;;;;;;;;;;;;;;;16.03;100.00;100324.09;5066322;28;1236;-77
2023/07/27 08:02:58;;;;;;;;;;;;;;;16.04;100.00;100319.69;5057254;28;1276;-78
2023/07/27 08:05:24;;;;;;;;;;;;;;;16.04;100.00;100320.50;5060796;28;1033;-77
2023/07/27 08:07:49;;;;;;;;;;;;;;;16.07;100.00;100319.34;5064331;28;1258;-78
2023/07/27 08:10:15;;;;;;;;;;;;;;;16.10;100.00;100324.22;5064218;28;1237;-78
2023/07/27 08:12:40;;;;;;;;;;;;;;;16.15;100.00;100314.06;5065636;28;1249;-77
2023/07/27 08:15:05;;;;;;;;;;;;;;;16.18;100.00;100305.88;5063711;28;1204;-77
2023/07/27 08:17:31;;;;;;;;;;;;;;;16.21;100.00;100305.50;5072367;28;1965;-78
2023/07/27 08:19:56;;;;;;;;;;;;;;;16.25;100.00;100312.03;5071979;28;1286;-78
2023/07/27 08:22:21;;;;;;;;;;;;;;;16.28;100.00;100306.44;5070580;28;1627;-78
2023/07/27 08:24:47;;;;;;;;;;;;;;;16.31;100.00;100305.28;5065755;28;1584;-77
2023/07/27 08:27:12;;;;;;;;;;;;;;;16.32;100.00;100307.72;5066900;28;1623;-77
2023/07/27 08:29:38;;;;;;;;;;;;;;;16.35;100.00;100307.38;5064853;28;1296;-78
2023/07/27 08:32:03;;;;;;;;;;;;;;;16.38;100.00;100308.81;5071916;28;1025;-79
2023/07/27 08:34:29;;;;;;;;;;;;;;;16.41;100.00;100290.97;5062796;28;1201;-78
2023/07/27 08:36:54;;;;;;;;;;;;;;;16.44;100.00;100306.31;5048046;28;1221;-77
2023/07/27 08:39:19;;;;;;;;;;;;;;;16.45;100.00;100292.22;5065296;28;1897;-77
2023/07/27 08:41:45;;;;;;;;;;;;;;;16.51;100.00;100295.94;5062090;28;1177;-77
2023/07/27 08:44:11;;;;;;;;;;;;;;;16.51;100.00;100289.91;5059819;28;1128;-77
2023/07/27 08:46:37;;;;;;;;;;;;;;;16.51;100.00;100289.91;5062977;28;1536;-78
2023/07/27 08:49:03;;;;;;;;;;;;;;;16.53;100.00;100282.69;5065053;28;1062;-77
2023/07/27 08:51:31;;;;;;;;;;;;;;;16.60;100.00;100288.84;5066525;28;1068;-78
2023/07/27 08:53:56;;;;;;;;;;;;;;;16.62;100.00;100298.13;5062438;28;1135;-78
2023/07/27 08:56:21;;;;;;;;;;;;;;;16.65;100.00;100292.56;5070329;28;1120;-78
2023/07/27 08:58:46;;;;;;;;;;;;;;;16.71;100.00;100301.53;5063444;28;1898;-78
2023/07/27 09:01:13;;;;;;;;;;;;;;;16.75;100.00;100294.16;5070656;28;1085;-78
2023/07/27 09:03:42;;;;;;;;;;;;;;;16.76;100.00;100293.97;5069408;28;1228;-78
2023/07/27 09:06:07;;;;;;;;;;;;;;;16.79;100.00;100290.97;5063562;28;1216;-78
2023/07/27 09:08:32;;;;;;;;;;;;;;;16.84;100.00;100285.22;5052207;28;1063;-77
2023/07/27 09:11:08;;;;;;;;;;;;;;;16.92;100.00;100295.63;5051511;28;1269;-77
2023/07/27 09:13:33;;;;;;;;;;;;;;;16.97;100.00;100296.72;5065739;28;1219;-78
2023/07/27 09:16:00;;;;;;;;;;;;;;;17.02;100.00;100293.53;5061826;28;1130;-78
2023/07/27 09:18:25;;;;;;;;;;;;;;;17.07;100.00;100295.63;5066929;28;1967;-78
2023/07/27 09:20:51;;;;;;;;;;;;;;;17.06;100.00;100299.25;5060922;28;1462;-77
2023/07/27 09:23:19;;;;;;;;;;;;;;;17.07;100.00;100295.63;5066040;28;1219;-77
2023/07/27 09:25:54;;;;;;;;;;;;;;;17.06;100.00;100292.19;5066395;28;1483;-80
2023/07/27 09:28:23;;;;;;;;;;;;;;;17.06;100.00;100299.25;5068479;28;1476;-79
2023/07/27 09:30:49;;;;;;;;;;;;;;;17.08;100.00;100286.75;5055590;28;1272;-78
2023/07/27 09:33:14;;;;;;;;;;;;;;;17.12;100.00;100288.03;5069784;28;1077;-78
2023/07/27 09:35:40;;;;;;;;;;;;;;;17.15;100.00;100285.06;5050608;28;1415;-78
2023/07/27 09:38:05;;;;;;;;;;;;;;;17.17;100.00;100286.50;5061612;28;2297;-78
2023/07/27 09:40:32;;;;;;;;;;;;;;;17.22;100.00;100288.59;5065556;28;1004;-78
2023/07/27 09:42:57;;;;;;;;;;;;;;;17.25;100.00;100288.19;5060591;28;1243;-78
2023/07/27 09:45:22;;;;;;;;;;;;;;;17.29;100.00;100289.47;5047622;28;1305;-78
2023/07/27 09:47:48;;;;;;;;;;;;;;;17.30;100.00;100279.81;5063079;28;1519;-78
2023/07/27 09:50:13;;;;;;;;;;;;;;;17.30;100.00;100285.84;5061833;28;1496;-77
2023/07/27 09:52:39;;;;;;;;;;;;;;;17.31;100.00;100287.47;5062494;28;1581;-78
2023/07/27 09:55:05;;;;;;;;;;;;;;;17.36;100.00;100285.13;5064060;28;1173;-78
2023/07/27 09:57:30;;;;;;;;;;;;;;;17.38;100.00;100283.16;5060790;28;1909;-78
2023/07/27 09:59:55;;;;;;;;;;;;;;;17.44;100.00;100286.84;5062232;28;1311;-77
2023/07/27 10:02:21;;;;;;;;;;;;;;;17.51;100.00;100292.97;5066902;28;1396;-77
2023/07/27 10:04:49;;;;;;;;;;;;;;;17.60;100.00;100291.06;5064902;28;1331;-78
2023/07/27 10:07:15;;;;;;;;;;;;;;;17.64;100.00;100292.31;5064191;28;985;-77
2023/07/27 10:09:41;;;;;;;;;;;;;;;17.65;100.00;100288.69;5064480;28;1333;-78
2023/07/27 10:12:06;;;;;;;;;;;;;;;17.63;100.00;100288.88;5062853;28;1081;-78
2023/07/27 10:14:32;;;;;;;;;;;;;;;17.67;100.00;100286.72;5060434;28;1292;-78
2023/07/27 10:17:15;;;;;;;;;;;;;;;17.67;100.00;100287.53;5064393;28;1078;-78
2023/07/27 10:19:42;;;;;;;;;;;;;;;17.69;100.00;100300.44;5064394;28;1207;-77
2023/07/27 10:22:08;;;;;;;;;;;;;;;17.72;100.00;100295.69;5064721;28;1344;-78
2023/07/27 10:24:50;;;;;;;;;;;;;;;17.70;100.00;100276.66;5064589;28;1191;-78
2023/07/27 10:27:16;;;;;;;;;;;;;;;17.74;100.00;100282.38;5059467;28;1098;-78
2023/07/27 10:29:45;;;;;;;;;;;;;;;17.75;100.00;100289.25;5063467;28;2289;-78
2023/07/27 10:32:11;;;;;;;;;;;;;;;17.76;100.00;100285.63;5057247;28;1414;-80
2023/07/27 10:34:38;;;;;;;;;;;;;;;17.77;100.00;100287.25;5063214;28;1233;-79
2023/07/27 10:37:13;;;;;;;;;;;;;;;17.78;100.00;100288.91;5068047;28;1028;-78
2023/07/27 10:39:46;;;;;;;;;;;;;;;17.80;100.00;100279.03;5057582;28;1977;-77
2023/07/27 10:42:18;;;;;;;;;;;;;;;17.85;100.00;100284.53;5061147;28;1270;-79
2023/07/27 10:44:48;;;;;;;;;;;;;;;17.85;100.00;100287.16;5063876;28;1219;-78
2023/07/27 10:47:37;;;;;;;;;;;;;;;17.87;100.00;100287.75;5063768;28;1102;-78
2023/07/27 10:50:03;;;;;;;;;;;;;;;17.89;100.00;100285.78;5059256;28;1924;-78
2023/07/27 10:52:30;;;;;;;;;;;;;;;17.92;100.00;100284.59;5062487;28;1150;-78
2023/07/27 10:54:59;;;;;;;;;;;;;;;17.90;100.00;100291.84;5060893;28;1180;-78
2023/07/27 10:57:29;;;;;;;;;;;;;;;17.92;100.00;100284.59;5061508;28;1889;-79
2023/07/27 10:59:54;;;;;;;;;;;;;;;17.92;100.00;100289.84;5059125;28;1149;-78
2023/07/27 11:02:23;;;;;;;;;;;;;;;17.92;100.00;100288.03;5047413;28;1288;-78
2023/07/27 11:04:49;;;;;;;;;;;;;;;17.96;100.00;100286.66;5066358;28;1027;-79
2023/07/27 11:07:23;;;;;;;;;;;;;;;17.99;100.00;100286.28;5059278;28;1155;-79
2023/07/27 11:09:48;;;;;;;;;;;;;;;18.03;100.00;100279.66;5047996;28;1357;-79
2023/07/27 11:12:14;;;;;;;;;;;;;;;18.06;100.00;100278.47;5064176;28;983;-78
2023/07/27 11:14:39;;;;;;;;;;;;;;;18.05;100.00;100275.03;5066541;28;1019;-78
2023/07/27 11:17:04;;;;;;;;;;;;;;;18.09;100.00;100270.22;5063087;28;1499;-78
2023/07/27 11:19:29;;;;;;;;;;;;;;;18.09;100.00;100274.66;5065572;28;1965;-78
2023/07/27 11:21:55;;;;;;;;;;;;;;;18.10;100.00;100271.03;5060930;28;2044;-79
2023/07/27 11:24:20;;;;;;;;;;;;;;;18.13;100.00;100276.75;5057287;28;1491;-78
2023/07/27 11:26:45;;;;;;;;;;;;;;;18.16;100.00;100280.78;5055460;28;1597;-79
2023/07/27 11:29:11;;;;;;;;;;;;;;;18.16;100.00;100270.28;5055094;28;1296;-78
2023/07/27 11:31:36;;;;;;;;;;;;;;;18.19;100.00;100275.97;5043797;28;1137;-78
2023/07/27 11:34:03;;;;;;;;;;;;;;;18.19;100.00;100280.41;5057480;28;1228;-79
2023/07/27 11:36:32;;;;;;;;;;;;;;;18.22;100.00;100269.53;5043329;28;1270;-80
2023/07/27 11:38:58;;;;;;;;;;;;;;;18.26;100.00;100270.78;5045986;28;1973;-79
2023/07/27 11:41:28;;;;;;;;;;;;;;;18.26;100.00;100271.59;5068260;28;1237;-79
2023/07/27 11:43:55;;;;;;;;;;;;;;;18.28;100.00;100276.66;5067389;28;1320;-79
2023/07/27 11:46:20;;;;;;;;;;;;;;;18.31;100.00;100273.66;5074207;28;1126;-79
2023/07/27 11:48:46;;;;;;;;;;;;;;;18.35;100.00;100269.66;5073970;28;1043;-79
2023/07/27 11:51:13;;;;;;;;;;;;;;;18.42;100.00;100265.28;5063484;28;1432;-78
2023/07/27 11:53:39;;;;;;;;;;;;;;;18.39;100.00;100263.00;5046859;28;1261;-79
2023/07/27 11:56:08;;;;;;;;;;;;;;;18.36;100.00;100276.53;5062645;28;1311;-79
2023/07/27 11:58:34;;;;;;;;;;;;;;;18.38;100.00;100271.91;5066076;28;1898;-79
2023/07/27 12:00:59;;;;;;;;;;;;;;;18.38;100.00;100274.53;5066657;28;1181;-78
2023/07/27 12:03:25;;;;;;;;;;;;;;;18.42;100.00;100274.97;5056663;28;1196;-79
2023/07/27 12:05:56;;;;;;;;;;;;;;;18.43;100.00;100277.41;5069914;28;1045;-78
2023/07/27 12:08:21;;;;;;;;;;;;;;;18.40;100.00;100277.75;5065032;28;1298;-79
2023/07/27 12:10:50;;;;;;;;;;;;;;;18.39;100.00;100276.13;5068775;28;1223;-79
2023/07/27 12:13:18;;;;;;;;;;;;;;;18.40;100.00;100280.38;5062651;28;1289;-79
2023/07/27 12:15:44;;;;;;;;;;;;;;;18.42;100.00;100283.66;5064657;28;1320;-79
2023/07/27 12:18:10;;;;;;;;;;;;;;;18.44;100.00;100284.25;5061955;28;1902;-79
2023/07/27 12:20:35;;;;;;;;;;;;;;;18.49;100.00;100276.63;5063601;28;1201;-79
2023/07/27 12:23:01;;;;;;;;;;;;;;;18.52;100.00;100268.38;5059495;28;1460;-80
2023/07/27 12:25:29;;;;;;;;;;;;;;;18.56;100.00;100277.50;5056232;28;1267;-79
2023/07/27 12:27:54;;;;;;;;;;;;;;;18.61;100.00;100270.88;5064684;28;1209;-79
2023/07/27 12:30:20;;;;;;;;;;;;;;;18.64;100.00;100280.97;5060591;28;1091;-79
2023/07/27 12:32:49;;;;;;;;;;;;;;;18.66;100.00;100276.34;5044727;28;2234;-78
2023/07/27 12:35:14;;;;;;;;;;;;;;;18.68;100.00;100272.56;5067043;28;1186;-78
2023/07/27 12:37:40;;;;;;;;;;;;;;;18.69;100.00;100276.00;5063938;28;1891;-79